Alum Ridge, VA

8:58 AM EDT on October 31, 2014 (GMT -0400)
Floyd Co. Dept. of Emer. Mgmt. EOC - VA | Change Station
CLOSE
Current Station
Personal Weather Station
Location: Floyd, VA
Elevation: 2470 ft
Nearby Weather Stations

Elev 2470 ft 36.91 °N, 80.32 °W | Updated 4 minutes ago

Partly Cloudy
Partly Cloudy
32.4 °F
Feels Like 32 °F
N
0.0
Wind Variable Wind from SW
Gusts 1.0 mph

Today
High -- | Low -- °F
--% Chance of Precip.
Yesterday
High -- | Low -- °F
Precip. -- in
7:44 AM 6:25 PM
First Quarter, 55% visible
Pressure 29.98 in
Visibility 4.0 miles
Clouds Clear
Windchill 32 °F
Dew Point 31 °F
Humidity 93%
Rainfall 0.01 in
Snow Depth Not available.
UV 0 out of 12
Pollen .10 out of 12
Air Quality Not available.
Flu Activity Not available.
METAR KBCB 311235Z AUTO 00000KT 4SM BR CLR 03/03 A2998 RMK AO2

More Conditions Fewer Conditions

Pressure 29.98 in
Visibility 4.0 miles
Clouds Clear
Windchill 32 °F
Dew Point 31 °F
Humidity 93%
Rainfall 0.01 in
Snow Depth Not available.
UV 0 out of 12
Pollen .10 out of 12
Air Quality Not available.
Flu Activity Not available.
METAR KBCB 311235Z AUTO 00000KT 4SM BR CLR 03/03 A2998 RMK AO2

More Conditions Fewer Conditions

10-Day Weather Forecast

Almanac

Astronomy

Oct. 31, 2014 Rise Set
Actual Time
Civil Twilight
Nautical Twilight
Astronomical Twilight
Moon
Length of Visible Light
Length of Day
Tomorrow will be .
, % of the Moon is Illuminated

Today's Extremes

State Highs State Lows

Community

WunderPhotos

Upload Photos

1,766,593 photos uploaded!

WunderBlogs® & News

Nearby

Air Quality

  Air Quality AQ Index Pollutant
Not available.

Snow Depth

Station Depth Elevation

Earthquake Activity

City Distance Mag. Time & Date
Minimum magnitude displayed is 2.5.

Coastal Water Temperatures

Place Temperature

Nearby Weather Stations